Time;durP1;ratioP1;P1;durP2;ratioP2;P2;SDS_P1;SDS_P2;PMS_P1;PMS_P2;Temp;Humidity;BMP_temperature;BMP_pressure;BME280_temperature;BME280_humidity;BME280_pressure;Samples;Min_cycle;Max_cycle;Signal;HPM_P1;HPM_P2
2022/11/30 00:02:23;;;;;;;17.98;11.35;;;7.00;99.90;;;;;;5053127;28;20080;-66
2022/11/30 00:04:48;;;;;;;18.33;10.07;;;6.90;99.90;;;;;;5053075;28;20049;-67
2022/11/30 00:07:14;;;;;;;17.08;9.95;;;6.90;99.90;;;;;;5054200;28;20091;-66
2022/11/30 00:09:40;;;;;;;19.20;9.73;;;6.90;99.90;;;;;;5053139;28;20048;-67
2022/11/30 00:12:06;;;;;;;15.65;8.38;;;6.90;99.90;;;;;;5055170;28;20124;-67
2022/11/30 00:14:31;;;;;;;18.38;10.70;;;6.90;99.90;;;;;;5097655;27;20594;-67
2022/11/30 00:16:57;;;;;;;22.73;9.82;;;6.90;99.90;;;;;;5040512;27;20061;-66
2022/11/30 00:19:23;;;;;;;18.83;9.50;;;6.90;99.90;;;;;;5055157;28;20041;-66
2022/11/30 00:21:49;;;;;;;18.13;9.57;;;6.90;99.90;;;;;;5078870;27;20046;-66
2022/11/30 00:24:14;;;;;;;17.95;11.20;;;6.90;99.90;;;;;;5139681;27;20078;-66
2022/11/30 00:26:40;;;;;;;18.08;9.75;;;6.90;99.90;;;;;;5136076;27;20469;-67
2022/11/30 00:29:06;;;;;;;20.10;11.15;;;6.90;99.90;;;;;;5137980;27;20192;-67
2022/11/30 00:31:31;;;;;;;17.00;10.70;;;6.90;99.90;;;;;;5071299;27;20056;-66
2022/11/30 00:33:57;;;;;;;18.67;10.10;;;6.90;99.90;;;;;;5054429;28;20041;-67
2022/11/30 00:36:23;;;;;;;17.58;9.40;;;6.90;99.90;;;;;;5053993;28;20481;-66
2022/11/30 00:38:50;;;;;;;17.55;10.00;;;6.90;99.90;;;;;;5051722;28;20053;-67
2022/11/30 00:41:17;;;;;;;19.88;11.25;;;6.90;99.90;;;;;;5053734;28;20037;-66
2022/11/30 00:43:43;;;;;;;18.20;10.30;;;6.90;99.90;;;;;;5053143;28;20045;-66
2022/11/30 00:46:10;;;;;;;19.98;10.65;;;6.90;99.90;;;;;;5054407;28;20041;-66
2022/11/30 00:48:40;;;;;;;19.60;10.20;;;6.90;99.90;;;;;;5016376;28;20053;-66
2022/11/30 00:51:07;;;;;;;18.58;10.77;;;7.00;99.90;;;;;;5014282;28;20630;-66
2022/11/30 00:53:33;;;;;;;19.48;11.00;;;7.00;99.90;;;;;;5015245;28;20045;-67
2022/11/30 00:55:59;;;;;;;19.23;11.45;;;7.00;99.90;;;;;;5084819;27;20126;-66
2022/11/30 00:58:24;;;;;;;19.80;10.30;;;7.00;99.90;;;;;;5106158;27;20045;-66
2022/11/30 01:00:50;;;;;;;23.42;11.88;;;7.00;99.90;;;;;;5031176;28;20083;-66
2022/11/30 01:03:16;;;;;;;23.40;13.07;;;7.00;99.90;;;;;;5045739;28;20147;-67
2022/11/30 01:05:42;;;;;;;24.63;13.82;;;7.00;99.90;;;;;;5052921;28;20047;-67
2022/11/30 01:08:09;;;;;;;23.75;12.18;;;7.00;99.90;;;;;;5052284;28;20063;-66
2022/11/30 01:10:37;;;;;;;28.73;14.40;;;7.00;99.90;;;;;;5073043;28;20440;-66
2022/11/30 01:13:03;;;;;;;27.20;14.85;;;6.90;99.90;;;;;;5116530;28;20079;-67
2022/11/30 01:15:29;;;;;;;27.73;14.27;;;7.00;99.90;;;;;;5101176;28;20083;-66
2022/11/30 01:17:55;;;;;;;28.10;13.18;;;6.90;99.90;;;;;;5100051;27;20048;-67
2022/11/30 01:20:21;;;;;;;27.63;14.25;;;6.90;99.90;;;;;;5054394;28;20052;-67
2022/11/30 01:22:46;;;;;;;28.67;13.00;;;6.90;99.90;;;;;;5052592;28;20053;-67
2022/11/30 01:25:12;;;;;;;23.65;12.85;;;6.90;99.90;;;;;;5041245;28;20106;-67
2022/11/30 01:27:38;;;;;;;25.80;12.07;;;6.90;99.90;;;;;;5128100;28;20070;-66
2022/11/30 01:30:04;;;;;;;25.77;13.20;;;6.90;99.90;;;;;;5137444;27;20061;-67
2022/11/30 01:32:30;;;;;;;25.45;12.70;;;6.90;99.90;;;;;;5138554;27;20054;-67
2022/11/30 01:34:56;;;;;;;20.88;11.07;;;6.90;99.90;;;;;;5136654;28;20039;-67
2022/11/30 01:37:22;;;;;;;23.00;11.98;;;6.90;99.90;;;;;;5093265;28;20091;-66
2022/11/30 01:39:47;;;;;;;21.90;12.80;;;6.90;99.90;;;;;;5046162;28;20049;-66
2022/11/30 01:42:15;;;;;;;23.98;11.98;;;6.90;99.90;;;;;;5032577;28;20225;-66
2022/11/30 01:44:49;;;;;;;20.08;11.70;;;6.90;99.90;;;;;;5043299;28;20467;-66
2022/11/30 01:47:16;;;;;;;21.48;11.68;;;6.90;99.90;;;;;;5051642;28;20419;-67
2022/11/30 01:49:53;;;;;;;21.88;12.18;;;6.80;99.90;;;;;;5054001;28;20049;-67
2022/11/30 01:52:26;;;;;;;21.58;11.73;;;6.90;99.90;;;;;;5063358;28;20053;-67
2022/11/30 01:55:09;;;;;;;20.42;10.90;;;6.90;99.90;;;;;;5136764;28;20039;-66
2022/11/30 01:57:39;;;;;;;20.83;10.95;;;6.90;99.90;;;;;;5138031;27;20040;-67
2022/11/30 02:00:08;;;;;;;21.33;12.15;;;6.90;99.90;;;;;;5140747;27;20051;-66
2022/11/30 02:03:01;;;;;;;20.25;10.70;;;6.90;99.90;;;;;;5142053;27;20043;-66
2022/11/30 02:05:28;;;;;;;17.55;10.73;;;6.90;99.90;;;;;;5140132;27;20051;-66
2022/11/30 02:07:54;;;;;;;18.58;11.07;;;6.80;99.90;;;;;;5141475;27;20074;-67
2022/11/30 02:10:32;;;;;;;18.88;11.00;;;6.80;99.90;;;;;;5084391;27;20053;-66
2022/11/30 02:13:04;;;;;;;19.02;10.85;;;6.90;99.90;;;;;;5036196;28;20064;-67
2022/11/30 02:15:41;;;;;;;17.67;10.73;;;6.80;99.90;;;;;;5053865;28;20057;-66
2022/11/30 02:18:12;;;;;;;17.52;10.80;;;6.80;99.90;;;;;;5055418;28;20105;-67
2022/11/30 02:20:57;;;;;;;16.05;10.45;;;6.80;99.90;;;;;;5057405;28;20068;-67
2022/11/30 02:23:31;;;;;;;17.95;10.55;;;6.80;99.90;;;;;;5056626;28;20040;-67
2022/11/30 02:26:27;;;;;;;16.83;9.98;;;6.80;99.90;;;;;;5070763;27;20035;-67
2022/11/30 02:29:28;;;;;;;15.40;8.98;;;6.80;99.90;;;;;;5038313;28;20081;-67
2022/11/30 02:32:07;;;;;;;18.42;10.85;;;6.80;99.90;;;;;;5102014;28;20136;-67
2022/11/30 02:34:35;;;;;;;17.30;10.70;;;6.80;99.90;;;;;;5038148;28;20045;-67
2022/11/30 02:37:03;;;;;;;16.80;9.77;;;6.70;99.90;;;;;;5056651;28;20045;-67
2022/11/30 02:39:29;;;;;;;16.13;10.00;;;6.70;99.90;;;;;;5055121;28;20068;-67
2022/11/30 02:41:55;;;;;;;16.42;10.80;;;6.70;99.90;;;;;;5062689;27;20483;-67
2022/11/30 02:44:21;;;;;;;19.92;10.88;;;6.70;99.90;;;;;;5121755;27;20065;-67
2022/11/30 02:47:12;;;;;;;18.52;10.32;;;6.80;99.90;;;;;;5063422;27;20051;-67
2022/11/30 02:49:51;;;;;;;18.00;10.20;;;6.70;99.90;;;;;;5037065;28;20046;-67
2022/11/30 02:52:20;;;;;;;15.75;9.77;;;6.60;99.90;;;;;;5085642;27;20072;-67
2022/11/30 02:54:46;;;;;;;15.75;9.52;;;6.60;99.90;;;;;;5115319;27;20112;-66
2022/11/30 02:57:11;;;;;;;16.02;10.13;;;6.60;99.90;;;;;;5055307;28;20045;-66
2022/11/30 02:59:38;;;;;;;15.98;9.82;;;6.50;99.90;;;;;;5043124;28;20049;-66
2022/11/30 03:02:04;;;;;;;15.73;9.57;;;6.50;99.90;;;;;;5034594;28;20049;-67
2022/11/30 03:04:29;;;;;;;18.40;10.85;;;6.50;99.90;;;;;;5033491;28;20091;-67
2022/11/30 03:06:55;;;;;;;18.25;10.32;;;6.50;99.90;;;;;;5019355;28;20076;-66
2022/11/30 03:09:21;;;;;;;19.67;10.55;;;6.50;99.90;;;;;;5053777;28;20120;-67
2022/11/30 03:11:46;;;;;;;17.27;10.90;;;6.50;99.90;;;;;;5056271;28;20101;-66
2022/11/30 03:14:12;;;;;;;18.65;11.10;;;6.50;99.90;;;;;;5047514;28;20132;-67
2022/11/30 03:16:38;;;;;;;19.13;10.70;;;6.50;99.90;;;;;;5034615;28;20064;-66
2022/11/30 03:19:04;;;;;;;19.55;10.82;;;6.50;99.90;;;;;;5035827;28;20046;-67
2022/11/30 03:21:30;;;;;;;16.10;9.02;;;6.40;99.90;;;;;;5034860;28;20049;-67
2022/11/30 03:23:55;;;;;;;16.15;9.98;;;6.50;99.90;;;;;;5019145;28;20479;-66
2022/11/30 03:26:21;;;;;;;18.67;10.75;;;6.60;99.90;;;;;;5054371;28;20049;-67
2022/11/30 03:28:47;;;;;;;16.80;10.40;;;6.50;99.90;;;;;;5055010;28;20380;-67
2022/11/30 03:31:13;;;;;;;19.40;10.57;;;6.50;99.90;;;;;;5053388;28;20048;-66
2022/11/30 03:33:41;;;;;;;15.43;9.85;;;6.50;99.90;;;;;;5055920;28;20072;-67
2022/11/30 03:36:09;;;;;;;17.02;10.52;;;6.50;99.90;;;;;;5055420;28;20510;-66
2022/11/30 03:38:35;;;;;;;20.13;10.43;;;6.50;99.90;;;;;;5053141;28;20075;-66
2022/11/30 03:41:07;;;;;;;17.35;9.80;;;6.50;99.90;;;;;;5054465;28;20041;-66
2022/11/30 03:43:33;;;;;;;15.55;9.82;;;6.50;99.90;;;;;;5054057;28;20045;-66
2022/11/30 03:45:59;;;;;;;19.48;10.60;;;6.50;99.90;;;;;;5054742;28;20518;-66
2022/11/30 03:48:24;;;;;;;18.80;10.70;;;6.50;99.90;;;;;;5054229;28;20055;-66
2022/11/30 03:50:50;;;;;;;18.05;10.27;;;6.50;99.90;;;;;;5055705;28;20041;-66
2022/11/30 03:53:21;;;;;;;19.75;10.32;;;6.50;99.90;;;;;;5037437;28;20583;-66
2022/11/30 03:55:55;;;;;;;18.83;10.93;;;6.60;99.90;;;;;;5054713;28;20049;-66
2022/11/30 03:58:22;;;;;;;20.58;11.48;;;6.50;99.90;;;;;;5052136;28;20060;-66
2022/11/30 04:00:48;;;;;;;18.83;11.05;;;6.50;99.90;;;;;;5079714;27;20041;-66
2022/11/30 04:03:14;;;;;;;19.30;10.43;;;6.50;99.90;;;;;;5073362;27;20084;-66
2022/11/30 04:05:40;;;;;;;19.88;10.75;;;6.50;99.90;;;;;;5138204;27;20054;-66
2022/11/30 04:08:06;;;;;;;17.35;10.10;;;6.60;99.90;;;;;;5055267;28;20049;-66
2022/11/30 04:10:31;;;;;;;20.73;10.88;;;6.50;99.90;;;;;;5033293;28;20063;-66
2022/11/30 04:12:57;;;;;;;21.15;11.80;;;6.50;99.90;;;;;;5034317;28;20045;-66
2022/11/30 04:15:23;;;;;;;19.38;11.35;;;6.50;99.90;;;;;;5060050;27;20104;-66
2022/11/30 04:17:48;;;;;;;21.15;10.80;;;6.50;99.90;;;;;;5137788;27;20050;-66
2022/11/30 04:20:14;;;;;;;19.88;11.00;;;6.50;99.90;;;;;;5139156;27;20047;-66
2022/11/30 04:22:40;;;;;;;19.40;10.73;;;6.50;99.90;;;;;;5137332;27;20043;-66
2022/11/30 04:25:06;;;;;;;19.58;11.10;;;6.50;99.90;;;;;;5137805;27;20321;-66
2022/11/30 04:27:32;;;;;;;17.88;10.30;;;6.50;99.90;;;;;;5137094;27;20058;-66
2022/11/30 04:29:58;;;;;;;19.73;10.75;;;6.60;99.90;;;;;;5138267;27;20054;-66
2022/11/30 04:32:23;;;;;;;23.65;11.77;;;6.50;99.90;;;;;;5131083;27;20458;-66
2022/11/30 04:34:49;;;;;;;19.10;11.20;;;6.50;99.90;;;;;;5053416;28;20081;-66
2022/11/30 04:37:14;;;;;;;18.35;11.57;;;6.60;99.90;;;;;;5054757;28;20045;-66
2022/11/30 04:39:40;;;;;;;19.48;11.27;;;6.60;99.90;;;;;;5053213;28;20080;-66
2022/11/30 04:42:06;;;;;;;18.83;10.82;;;6.50;99.90;;;;;;5054754;28;20041;-66
2022/11/30 04:44:32;;;;;;;18.80;10.13;;;6.50;99.90;;;;;;5052558;28;20045;-66
2022/11/30 04:46:57;;;;;;;17.90;10.90;;;6.50;99.90;;;;;;5054231;28;20044;-66
2022/11/30 04:49:23;;;;;;;18.30;10.45;;;6.50;99.90;;;;;;5054937;28;20408;-66
2022/11/30 04:51:49;;;;;;;16.52;10.15;;;6.50;99.90;;;;;;5053205;28;20044;-66
2022/11/30 04:54:14;;;;;;;19.08;10.45;;;6.50;99.90;;;;;;5053825;28;20064;-66
2022/11/30 04:56:42;;;;;;;16.20;9.88;;;6.40;99.90;;;;;;5053048;28;20457;-66
2022/11/30 04:59:08;;;;;;;16.45;9.55;;;6.40;99.90;;;;;;5053443;28;20093;-66
2022/11/30 05:01:34;;;;;;;16.60;10.00;;;6.50;99.90;;;;;;5051934;28;20072;-66
2022/11/30 05:03:59;;;;;;;16.00;9.55;;;6.40;99.90;;;;;;5052899;28;20071;-66
2022/11/30 05:06:26;;;;;;;16.58;10.18;;;6.40;99.90;;;;;;5081136;27;20120;-66
2022/11/30 05:08:52;;;;;;;15.90;10.05;;;6.40;99.90;;;;;;5057959;27;20049;-66
2022/11/30 05:11:17;;;;;;;16.38;10.02;;;6.50;99.90;;;;;;5032513;28;20037;-66
2022/11/30 05:13:43;;;;;;;15.20;9.52;;;6.40;99.90;;;;;;5041690;28;20045;-66
2022/11/30 05:16:09;;;;;;;15.85;9.45;;;6.40;99.90;;;;;;5137578;28;20180;-66
2022/11/30 05:18:35;;;;;;;16.10;10.18;;;6.50;99.90;;;;;;5137180;27;20116;-67
2022/11/30 05:21:01;;;;;;;15.18;9.75;;;6.40;99.90;;;;;;5136702;28;20469;-66
2022/11/30 05:23:27;;;;;;;17.38;10.07;;;6.40;99.90;;;;;;5099608;27;20033;-66
2022/11/30 05:25:53;;;;;;;14.35;9.43;;;6.40;99.90;;;;;;5117215;28;20602;-66
2022/11/30 05:28:19;;;;;;;15.27;8.90;;;6.40;99.90;;;;;;5044662;28;20046;-66
2022/11/30 05:30:45;;;;;;;13.85;9.25;;;6.50;99.90;;;;;;5034820;28;20080;-66
2022/11/30 05:33:11;;;;;;;16.17;10.10;;;6.50;99.90;;;;;;5057099;28;20056;-66
2022/11/30 05:35:37;;;;;;;13.68;8.98;;;6.40;99.90;;;;;;5056254;28;20485;-66
2022/11/30 05:38:02;;;;;;;14.27;9.35;;;6.50;99.90;;;;;;5038937;28;20037;-66
2022/11/30 05:40:31;;;;;;;14.75;9.38;;;6.50;99.90;;;;;;5026987;28;20092;-66
2022/11/30 05:42:58;;;;;;;17.63;9.43;;;6.40;99.90;;;;;;5035229;28;20045;-66
2022/11/30 05:45:24;;;;;;;13.65;8.73;;;6.50;99.90;;;;;;5038112;28;20057;-66
2022/11/30 05:47:50;;;;;;;14.30;9.20;;;6.40;99.90;;;;;;5035833;28;20052;-66
2022/11/30 05:50:18;;;;;;;15.52;9.52;;;6.40;99.90;;;;;;5037913;28;20038;-66
2022/11/30 05:52:44;;;;;;;17.80;9.65;;;6.40;99.90;;;;;;5034903;28;20038;-66
2022/11/30 05:55:10;;;;;;;15.07;8.52;;;6.40;99.90;;;;;;5051136;27;20040;-66
2022/11/30 05:57:36;;;;;;;15.07;9.85;;;6.30;99.90;;;;;;5104117;27;20064;-66
2022/11/30 06:00:08;;;;;;;15.18;8.93;;;6.30;99.90;;;;;;5076466;27;20052;-66
2022/11/30 06:02:33;;;;;;;15.20;9.07;;;6.30;99.90;;;;;;5037560;28;20089;-65
2022/11/30 06:04:59;;;;;;;16.92;9.40;;;6.40;99.90;;;;;;5053462;28;20051;-66
2022/11/30 06:07:25;;;;;;;13.75;8.57;;;6.40;99.90;;;;;;5056215;28;20369;-66
2022/11/30 06:09:51;;;;;;;15.15;8.82;;;6.40;99.90;;;;;;5055457;28;20048;-66
2022/11/30 06:12:17;;;;;;;15.77;9.43;;;6.40;99.90;;;;;;5047872;28;20045;-66
2022/11/30 06:14:42;;;;;;;13.32;8.90;;;6.40;99.90;;;;;;5087472;27;20062;-66
2022/11/30 06:17:08;;;;;;;14.52;8.98;;;6.40;99.90;;;;;;5138867;27;20047;-67
2022/11/30 06:19:34;;;;;;;13.18;8.45;;;6.40;99.90;;;;;;5142162;27;20491;-67
2022/11/30 06:21:59;;;;;;;13.43;8.50;;;6.30;99.90;;;;;;5121596;27;20082;-66
2022/11/30 06:24:25;;;;;;;13.95;8.07;;;6.40;99.90;;;;;;5140415;27;20043;-66
2022/11/30 06:26:51;;;;;;;12.80;8.20;;;6.30;99.90;;;;;;5138830;27;20053;-66
2022/11/30 06:29:16;;;;;;;13.00;7.93;;;6.30;99.90;;;;;;5104581;27;20477;-66
2022/11/30 06:31:42;;;;;;;14.05;8.73;;;6.30;99.90;;;;;;5036213;28;20136;-66
2022/11/30 06:34:08;;;;;;;12.65;8.07;;;6.20;99.90;;;;;;5036089;28;20037;-66
2022/11/30 06:36:36;;;;;;;12.65;7.70;;;6.20;99.90;;;;;;5037173;28;20136;-66
2022/11/30 06:39:03;;;;;;;13.98;8.20;;;6.20;99.90;;;;;;5035008;28;20057;-66
2022/11/30 06:41:28;;;;;;;12.88;8.73;;;6.20;99.90;;;;;;5037243;28;20041;-66
2022/11/30 06:43:54;;;;;;;13.45;8.02;;;6.20;99.90;;;;;;5034285;28;20030;-66
2022/11/30 06:46:21;;;;;;;13.82;8.05;;;6.20;99.90;;;;;;5036271;28;20052;-66
2022/11/30 06:48:49;;;;;;;15.02;8.70;;;6.30;99.90;;;;;;5082051;27;20049;-66
2022/11/30 06:51:15;;;;;;;14.20;8.20;;;6.20;99.90;;;;;;5058396;27;20055;-66
2022/11/30 06:53:43;;;;;;;13.45;7.43;;;6.20;99.90;;;;;;5141570;27;20134;-66
2022/11/30 06:56:09;;;;;;;11.15;7.57;;;6.20;99.90;;;;;;5084681;27;20037;-66
2022/11/30 06:58:36;;;;;;;11.77;7.50;;;6.20;99.90;;;;;;5055774;28;20094;-66
2022/11/30 07:01:10;;;;;;;12.73;7.88;;;6.20;99.90;;;;;;5051725;28;20136;-66
2022/11/30 07:03:36;;;;;;;14.13;7.88;;;6.20;99.90;;;;;;5101752;27;20074;-66
2022/11/30 07:06:10;;;;;;;11.52;7.38;;;6.20;99.90;;;;;;5091914;27;20496;-66
2022/11/30 07:08:36;;;;;;;14.20;8.40;;;6.20;99.90;;;;;;5034799;28;20072;-66
2022/11/30 07:11:02;;;;;;;12.95;7.53;;;6.20;99.90;;;;;;5113695;27;20047;-66
2022/11/30 07:13:28;;;;;;;12.60;7.25;;;6.20;99.90;;;;;;5137879;27;20043;-65
2022/11/30 07:15:54;;;;;;;10.30;6.72;;;6.20;99.90;;;;;;5056768;27;20059;-65
2022/11/30 07:18:20;;;;;;;10.75;7.32;;;6.20;99.90;;;;;;5061290;27;20475;-65
2022/11/30 07:20:46;;;;;;;13.30;7.63;;;6.20;99.90;;;;;;5140025;27;20043;-66
2022/11/30 07:26:06;;;;;;;12.18;7.72;;;6.20;99.90;;;;;;5139079;27;20043;-65
2022/11/30 07:28:34;;;;;;;12.40;8.02;;;6.20;99.90;;;;;;5141173;27;20039;-66
2022/11/30 07:31:01;;;;;;;13.18;7.82;;;6.20;99.90;;;;;;5137151;27;20522;-65
2022/11/30 07:33:27;;;;;;;11.25;7.10;;;6.20;99.90;;;;;;5140437;27;20087;-65
2022/11/30 07:35:53;;;;;;;12.10;7.53;;;6.10;99.90;;;;;;5101975;27;20049;-65
2022/11/30 07:38:19;;;;;;;12.32;7.78;;;6.20;99.90;;;;;;5054449;28;20404;-65
2022/11/30 07:40:45;;;;;;;12.23;7.85;;;6.10;99.90;;;;;;5055324;28;20057;-65
2022/11/30 07:43:10;;;;;;;11.38;7.30;;;6.10;99.90;;;;;;5052303;28;20053;-65
2022/11/30 07:45:36;;;;;;;12.98;7.53;;;6.20;99.90;;;;;;5055667;28;20080;-65
2022/11/30 07:48:02;;;;;;;12.50;8.30;;;6.20;99.90;;;;;;5053289;28;20087;-65
2022/11/30 07:50:27;;;;;;;12.38;7.50;;;6.20;99.90;;;;;;5055191;28;20037;-65
2022/11/30 07:52:53;;;;;;;12.75;7.72;;;6.20;99.90;;;;;;5052883;28;20120;-65
2022/11/30 07:55:22;;;;;;;13.00;8.18;;;6.20;99.90;;;;;;5054898;28;20120;-66
2022/11/30 07:57:48;;;;;;;11.95;7.70;;;6.20;99.90;;;;;;5053712;28;20056;-65
2022/11/30 08:00:14;;;;;;;11.27;7.78;;;6.20;99.90;;;;;;5053980;28;20045;-65
2022/11/30 08:02:40;;;;;;;12.63;7.85;;;6.20;99.90;;;;;;5054073;28;20056;-65
2022/11/30 08:05:06;;;;;;;10.90;7.07;;;6.20;99.90;;;;;;5035425;28;20053;-65
2022/11/30 08:07:32;;;;;;;11.35;7.20;;;6.20;99.90;;;;;;5053825;28;20057;-65
2022/11/30 08:09:57;;;;;;;10.75;6.82;;;6.20;99.90;;;;;;5089030;27;20042;-65
2022/11/30 08:12:23;;;;;;;11.45;6.97;;;6.20;99.90;;;;;;5026396;27;20117;-65
2022/11/30 08:14:49;;;;;;;10.68;7.22;;;6.20;99.90;;;;;;5030777;27;20627;-65
2022/11/30 08:17:15;;;;;;;9.30;6.88;;;6.30;99.90;;;;;;5021983;28;20101;-65
2022/11/30 08:19:40;;;;;;;9.50;6.60;;;6.20;99.90;;;;;;5021547;28;20635;-65
2022/11/30 08:22:06;;;;;;;10.93;6.95;;;6.20;99.90;;;;;;5013907;28;20094;-65
2022/11/30 08:24:31;;;;;;;10.65;6.78;;;6.20;99.90;;;;;;5027400;28;20048;-65
2022/11/30 08:26:57;;;;;;;11.10;6.78;;;6.20;99.90;;;;;;5024261;28;20153;-65
2022/11/30 08:29:23;;;;;;;11.73;8.13;;;6.20;99.90;;;;;;5007260;28;20045;-65
2022/11/30 08:31:48;;;;;;;9.68;7.05;;;6.20;99.90;;;;;;5023544;28;20045;-65
2022/11/30 08:34:14;;;;;;;11.35;8.00;;;6.20;99.90;;;;;;5023298;28;20662;-65
2022/11/30 08:36:40;;;;;;;10.48;7.38;;;6.20;99.90;;;;;;5025180;28;20054;-65
2022/11/30 08:39:10;;;;;;;12.60;7.18;;;6.20;99.90;;;;;;5019910;28;20068;-65
2022/11/30 08:41:37;;;;;;;12.40;7.95;;;6.30;99.90;;;;;;5025421;28;20034;-65
2022/11/30 08:44:04;;;;;;;11.20;7.10;;;6.20;99.90;;;;;;5022256;28;20071;-65
2022/11/30 08:46:30;;;;;;;10.25;7.20;;;6.20;99.90;;;;;;5022905;28;20109;-66
2022/11/30 08:48:56;;;;;;;10.23;7.65;;;6.30;99.90;;;;;;5032290;27;20030;-65
2022/11/30 08:51:22;;;;;;;10.25;6.90;;;6.20;99.90;;;;;;5022654;28;20071;-66
2022/11/30 08:53:48;;;;;;;9.23;6.85;;;6.20;99.90;;;;;;5024327;28;20042;-66
2022/11/30 08:56:19;;;;;;;10.52;6.93;;;6.20;99.90;;;;;;5021766;28;20045;-66
2022/11/30 08:58:45;;;;;;;11.23;6.75;;;6.20;99.90;;;;;;5024715;28;20073;-66
2022/11/30 09:01:20;;;;;;;11.20;7.15;;;6.20;99.90;;;;;;5023395;28;20049;-65
2022/11/30 09:03:52;;;;;;;9.07;6.35;;;6.20;99.90;;;;;;5023935;28;20110;-66
2022/11/30 09:06:20;;;;;;;8.63;6.28;;;6.20;99.90;;;;;;5024215;28;20037;-65
2022/11/30 09:08:48;;;;;;;9.55;6.50;;;6.20;99.90;;;;;;5030774;28;20102;-65
2022/11/30 09:11:15;;;;;;;9.50;6.25;;;6.20;99.90;;;;;;5041066;28;20485;-65
2022/11/30 09:13:42;;;;;;;8.40;6.40;;;6.20;99.90;;;;;;5033753;28;20045;-65
2022/11/30 09:16:09;;;;;;;11.23;7.53;;;6.30;99.90;;;;;;5053282;28;20118;-66
2022/11/30 09:18:35;;;;;;;11.93;7.15;;;6.30;99.90;;;;;;5051979;28;20396;-65
2022/11/30 09:21:03;;;;;;;9.10;6.43;;;6.30;99.90;;;;;;5052279;28;20037;-66
2022/11/30 09:23:29;;;;;;;10.02;6.93;;;6.30;99.90;;;;;;5054260;28;20049;-65
2022/11/30 09:25:57;;;;;;;9.68;6.63;;;6.30;99.90;;;;;;5051176;28;20049;-66
2022/11/30 09:28:23;;;;;;;10.07;6.35;;;6.40;99.90;;;;;;5053095;28;20047;-66
2022/11/30 09:30:48;;;;;;;10.70;8.02;;;6.40;99.90;;;;;;5050502;28;20049;-66
2022/11/30 09:33:14;;;;;;;10.18;6.70;;;6.30;99.90;;;;;;5054303;28;20060;-66
2022/11/30 09:35:40;;;;;;;9.70;6.82;;;6.40;99.90;;;;;;5017406;28;20072;-65
2022/11/30 09:38:05;;;;;;;10.15;6.63;;;6.30;99.90;;;;;;5052731;28;20057;-65
2022/11/30 09:40:33;;;;;;;9.20;6.20;;;6.30;99.90;;;;;;5052207;28;20045;-65
2022/11/30 09:43:18;;;;;;;11.75;7.18;;;6.30;99.90;;;;;;5025372;28;20046;-65
2022/11/30 09:45:55;;;;;;;10.00;7.00;;;6.30;99.90;;;;;;5024214;28;20041;-65
2022/11/30 09:48:39;;;;;;;9.32;6.60;;;6.30;99.90;;;;;;5020528;28;20105;-65
2022/11/30 09:51:13;;;;;;;10.10;7.53;;;6.30;99.90;;;;;;5005097;28;20053;-65
2022/11/30 09:53:42;;;;;;;9.40;6.93;;;6.40;99.90;;;;;;5023524;28;20496;-65
2022/11/30 09:56:26;;;;;;;10.68;6.72;;;6.30;99.90;;;;;;5021081;28;20034;-65
2022/11/30 09:59:05;;;;;;;9.90;6.90;;;6.30;99.90;;;;;;5024021;28;20092;-66
2022/11/30 10:01:33;;;;;;;9.63;6.75;;;6.30;99.90;;;;;;5023963;28;20049;-64
2022/11/30 10:04:00;;;;;;;9.30;6.47;;;6.30;99.90;;;;;;5023740;28;20131;-65
2022/11/30 10:06:50;;;;;;;9.77;6.80;;;6.30;99.90;;;;;;5006065;28;20046;-65
2022/11/30 10:09:40;;;;;;;10.15;7.00;;;6.40;99.90;;;;;;5021594;28;20060;-65
2022/11/30 10:12:20;;;;;;;9.32;6.80;;;6.40;99.90;;;;;;5026220;28;20054;-65
2022/11/30 10:14:57;;;;;;;10.10;7.35;;;6.30;99.90;;;;;;5026499;28;20120;-65
2022/11/30 10:17:31;;;;;;;10.63;7.32;;;6.40;99.90;;;;;;5019379;28;20073;-65
2022/11/30 10:20:39;;;;;;;11.15;7.20;;;6.40;99.90;;;;;;5020997;28;20057;-65
2022/11/30 10:23:42;;;;;;;11.43;7.53;;;6.40;99.90;;;;;;5018387;28;20060;-65
2022/11/30 10:26:14;;;;;;;12.40;7.68;;;6.40;99.90;;;;;;5015269;28;20050;-65
2022/11/30 10:28:46;;;;;;;11.20;7.85;;;6.30;99.90;;;;;;5017438;28;20101;-65
2022/11/30 10:31:13;;;;;;;12.35;7.72;;;6.40;99.90;;;;;;5014284;28;20071;-65
2022/11/30 10:33:46;;;;;;;11.40;7.43;;;6.40;99.90;;;;;;5016207;28;20121;-65
2022/11/30 10:36:19;;;;;;;11.80;7.72;;;6.40;99.90;;;;;;4999145;28;20105;-64
2022/11/30 10:38:53;;;;;;;10.82;7.13;;;6.40;99.90;;;;;;5013557;28;20080;-65
2022/11/30 10:41:33;;;;;;;11.73;7.45;;;6.40;99.90;;;;;;5017311;28;20106;-64
2022/11/30 10:44:30;;;;;;;12.10;7.70;;;6.60;99.90;;;;;;4998647;28;20050;-64
2022/11/30 10:47:06;;;;;;;10.07;6.70;;;6.50;99.90;;;;;;5016624;28;20068;-65
2022/11/30 10:49:33;;;;;;;10.48;7.25;;;6.60;99.90;;;;;;5017318;28;20038;-65
2022/11/30 10:52:07;;;;;;;10.55;7.00;;;6.60;99.90;;;;;;5017085;28;20577;-65
2022/11/30 10:54:35;;;;;;;11.00;7.63;;;6.70;99.90;;;;;;5018169;28;20098;-65
2022/11/30 10:57:02;;;;;;;11.75;8.15;;;6.70;99.90;;;;;;5016332;28;20038;-65
2022/11/30 10:59:49;;;;;;;10.90;7.80;;;6.60;99.90;;;;;;5014339;28;20050;-65
2022/11/30 11:02:39;;;;;;;11.32;7.38;;;6.70;99.90;;;;;;4997874;28;20061;-65
2022/11/30 11:05:28;;;;;;;11.20;7.47;;;6.60;99.90;;;;;;5014841;28;20102;-65
2022/11/30 11:07:58;;;;;;;10.80;7.90;;;6.60;99.90;;;;;;5015469;28;20072;-65
2022/11/30 11:10:30;;;;;;;12.88;8.35;;;6.60;99.90;;;;;;5034218;28;20043;-65
2022/11/30 11:12:56;;;;;;;11.02;7.68;;;6.60;99.90;;;;;;5027672;28;20049;-65
2022/11/30 11:15:27;;;;;;;11.35;7.45;;;6.70;99.90;;;;;;5026214;28;20081;-65
2022/11/30 11:18:11;;;;;;;11.65;7.93;;;6.60;99.90;;;;;;5024471;28;20079;-65
2022/11/30 11:20:43;;;;;;;10.50;7.45;;;6.70;99.90;;;;;;5023761;28;20067;-65
2022/11/30 11:23:34;;;;;;;11.65;7.40;;;6.60;99.90;;;;;;5022446;28;20037;-65
2022/11/30 11:26:01;;;;;;;12.25;7.45;;;6.70;99.90;;;;;;5022800;28;20041;-65
2022/11/30 11:28:27;;;;;;;11.45;7.50;;;6.80;99.90;;;;;;5022652;28;20042;-65
2022/11/30 11:30:55;;;;;;;12.38;7.97;;;6.60;99.90;;;;;;5023379;28;20036;-65
2022/11/30 11:33:27;;;;;;;13.70;8.40;;;6.70;99.90;;;;;;5024164;28;20046;-65
2022/11/30 11:36:21;;;;;;;14.43;9.65;;;6.60;99.90;;;;;;5020640;28;20071;-65
2022/11/30 11:38:47;;;;;;;12.65;8.38;;;6.60;99.90;;;;;;5024181;28;20139;-65
2022/11/30 11:41:33;;;;;;;14.25;9.23;;;6.60;99.90;;;;;;5008609;28;20042;-65
2022/11/30 11:44:02;;;;;;;15.27;9.13;;;6.60;99.90;;;;;;5023629;28;20062;-65
2022/11/30 11:46:30;;;;;;;20.63;11.05;;;6.60;99.90;;;;;;5021632;28;20046;-65
2022/11/30 11:49:27;;;;;;;21.08;12.25;;;6.60;99.90;;;;;;5024376;28;20049;-65
2022/11/30 11:52:09;;;;;;;21.23;11.23;;;6.60;99.90;;;;;;5032665;28;20057;-65
2022/11/30 11:54:38;;;;;;;19.83;11.50;;;6.50;99.90;;;;;;5018166;28;20049;-65
2022/11/30 11:57:11;;;;;;;19.52;11.43;;;6.50;99.90;;;;;;5033629;28;20050;-65
2022/11/30 11:59:55;;;;;;;19.25;11.32;;;6.50;99.90;;;;;;5034576;28;20434;-66
2022/11/30 12:02:27;;;;;;;15.77;10.90;;;6.50;99.90;;;;;;5034163;28;20053;-65
2022/11/30 12:05:24;;;;;;;20.67;12.43;;;6.50;99.90;;;;;;5033490;28;20067;-65
2022/11/30 12:08:01;;;;;;;20.90;13.30;;;6.50;99.90;;;;;;5033334;28;20053;-65
2022/11/30 12:10:37;;;;;;;19.35;12.52;;;6.50;99.90;;;;;;5041358;28;20505;-65
2022/11/30 12:13:16;;;;;;;25.00;12.95;;;6.50;99.90;;;;;;5033457;28;20045;-65
2022/11/30 12:16:19;;;;;;;24.30;12.93;;;6.50;99.90;;;;;;5052538;28;20041;-65
2022/11/30 12:19:14;;;;;;;23.10;12.30;;;6.50;99.90;;;;;;5054197;28;20053;-65
2022/11/30 12:22:06;;;;;;;21.88;12.20;;;6.50;99.90;;;;;;5051501;28;20492;-66
2022/11/30 12:24:56;;;;;;;22.17;13.18;;;6.50;99.90;;;;;;5053561;28;20106;-65
2022/11/30 12:27:45;;;;;;;23.05;11.68;;;6.50;99.90;;;;;;5053518;28;20063;-65
2022/11/30 12:30:23;;;;;;;25.73;12.70;;;6.50;99.90;;;;;;5053406;28;20049;-66
2022/11/30 12:33:14;;;;;;;23.83;12.82;;;6.50;99.90;;;;;;5055110;28;20029;-66
2022/11/30 12:35:58;;;;;;;24.92;13.10;;;6.50;99.90;;;;;;5052085;28;20061;-65
2022/11/30 12:38:43;;;;;;;26.65;14.20;;;6.50;99.90;;;;;;5052306;28;20500;-65
2022/11/30 12:41:36;;;;;;;28.25;13.98;;;6.50;99.90;;;;;;5052310;28;20067;-66
2022/11/30 12:44:39;;;;;;;29.45;14.60;;;6.50;99.90;;;;;;5051459;28;20040;-66
2022/11/30 12:47:20;;;;;;;27.08;12.70;;;6.40;99.90;;;;;;5053365;28;20069;-67
2022/11/30 12:49:55;;;;;;;21.23;12.45;;;6.40;99.90;;;;;;5052957;28;20057;-65
2022/11/30 12:52:32;;;;;;;27.48;13.98;;;6.40;99.90;;;;;;5051653;28;20076;-65
2022/11/30 12:55:29;;;;;;;27.35;13.48;;;6.50;99.90;;;;;;5054144;28;20049;-65
2022/11/30 12:58:10;;;;;;;26.70;13.82;;;6.40;99.90;;;;;;5036313;28;20063;-66
2022/11/30 13:00:58;;;;;;;26.10;14.38;;;6.40;99.90;;;;;;5046238;28;20603;-65
2022/11/30 13:04:01;;;;;;;27.67;14.27;;;6.40;99.90;;;;;;5024374;28;20053;-65